Station Historical Data
Daily Summary for December 25, 2017 Units:  English    Metric   Both
« Previous Day
Next Day »
Daily Weekly Monthly Yearly Custom
  High: Low: Average:
Temperature: 32.2 °F 12.3 °F 22.5 °F
Dew Point: 29.6 °F 4.4 °F 18.3 °F
Humidity: 92% 70% 84%
Wind Speed: 23.0mph 0.0mph 8.6mph
Wind Gust: 30.0mph - -
Wind- - WSW
Pressure: 30.23 in 29.61 in -
Precipitation: 0.00 in    
Historical Graphs
 
 
Tabular Data for December 25, 2017
Time Temperature Dew Point Pressure Wind Wind Speed Wind Gust Humidity Rainfall Rate (Hourly)
00:04 27.2 °F 24.4 °F 29.66 in NE 2.0 mph 5.0 mph 89% 0.00 in
00:09 27.2 °F 24.4 °F 29.66 in NE 1.0 mph 5.0 mph 89% 0.00 in
00:14 27.2 °F 24.4 °F 29.66 in Calm   3.0 mph 89% 0.00 in
00:19 27.1 °F 24.3 °F 29.65 in NE 1.0 mph 4.0 mph 89% 0.00 in
00:24 27.1 °F 24.3 °F 29.65 in East 5.0 mph 5.0 mph 89% 0.00 in
00:34 27.1 °F 24.3 °F 29.64 in Calm   4.0 mph 89% 0.00 in
00:39 27.1 °F 24.3 °F 29.64 in ENE 1.0 mph 4.0 mph 89% 0.00 in
00:40 27.1 °F 24.3 °F 29.64 in Calm   1.0 mph 89% 0.00 in
00:49 27.2 °F 24.4 °F 29.63 in Calm   2.0 mph 89% 0.00 in
00:59 27.2 °F 24.4 °F 29.63 in ESE 1.0 mph 3.0 mph 89% 0.00 in
01:04 27.2 °F 24.4 °F 29.63 in SE 1.0 mph 3.0 mph 89% 0.00 in
01:09 27.2 °F 24.4 °F 29.63 in SE 2.0 mph 4.0 mph 89% 0.00 in
01:14 27.2 °F 24.4 °F 29.63 in SSE 2.0 mph 4.0 mph 89% 0.00 in
01:19 27.3 °F 24.8 °F 29.63 in South 1.0 mph 5.0 mph 90% 0.00 in
01:24 27.4 °F 24.9 °F 29.62 in SSW 2.0 mph 8.0 mph 90% 0.00 in
01:29 27.7 °F 25.2 °F 29.63 in SSW 1.0 mph 6.0 mph 90% 0.00 in
01:30 27.7 °F 25.2 °F 29.63 in SSW 3.0 mph 8.0 mph 90% 0.00 in
01:39 28.2 °F 25.6 °F 29.62 in SSW 3.0 mph 9.0 mph 90% 0.00 in
01:44 28.6 °F 26.0 °F 29.62 in SSW 4.0 mph 10.0 mph 90% 0.00 in
01:49 28.8 °F 26.2 °F 29.62 in SW 6.0 mph 10.0 mph 90% 0.00 in
01:54 29.2 °F 26.6 °F 29.62 in South 8.0 mph 13.0 mph 90% 0.00 in
01:59 29.4 °F 26.8 °F 29.62 in SW 4.0 mph 10.0 mph 90% 0.00 in
02:04 29.8 °F 27.5 °F 29.62 in WSW 5.0 mph 11.0 mph 91% 0.00 in
02:09 30.3 °F 28.0 °F 29.62 in SW 7.0 mph 16.0 mph 91% 0.00 in
02:14 30.8 °F 28.5 °F 29.62 in SW 7.0 mph 21.0 mph 91% 0.00 in
02:19 31.2 °F 28.9 °F 29.62 in SW 13.0 mph 17.0 mph 91% 0.00 in
02:24 31.6 °F 29.3 °F 29.62 in SW 9.0 mph 17.0 mph 91% 0.00 in
02:29 31.8 °F 29.5 °F 29.62 in SSE 7.0 mph 21.0 mph 91% 0.00 in
02:34 32.0 °F 29.4 °F 29.62 in West 13.0 mph 20.0 mph 90% 0.00 in
02:39 32.1 °F 29.5 °F 29.62 in WSW 19.0 mph 21.0 mph 90% 0.00 in
02:44 32.1 °F 29.5 °F 29.62 in SW 10.0 mph 21.0 mph 90% 0.00 in
02:49 32.2 °F 29.6 °F 29.62 in SW 11.0 mph 25.0 mph 90% 0.00 in
02:50 32.2 °F 29.6 °F 29.62 in SW 7.0 mph 25.0 mph 90% 0.00 in
02:54 32.2 °F 29.6 °F 29.62 in SW 13.0 mph 19.0 mph 90% 0.00 in
02:59 32.1 °F 29.5 °F 29.62 in SW 11.0 mph 23.0 mph 90% 0.00 in
03:04 32.1 °F 29.5 °F 29.61 in SW 13.0 mph 25.0 mph 90% 0.00 in
03:09 32.1 °F 29.2 °F 29.62 in SW 13.0 mph 25.0 mph 89% 0.00 in
03:19 32.2 °F 29.6 °F 29.63 in WSW 13.0 mph 22.0 mph 90% 0.00 in
03:24 31.6 °F 29.0 °F 29.64 in SW 12.0 mph 30.0 mph 90% 0.00 in
03:29 30.6 °F 28.0 °F 29.64 in West 14.0 mph 27.0 mph 90% 0.00 in
03:34 30.2 °F 27.6 °F 29.65 in SW 8.0 mph 20.0 mph 90% 0.00 in
03:40 29.9 °F 27.6 °F 29.65 in WSW 14.0 mph 26.0 mph 91% 0.00 in
03:54 29.2 °F 26.9 °F 29.66 in WSW 8.0 mph 21.0 mph 91% 0.00 in
03:55 29.2 °F 26.9 °F 29.66 in WSW 12.0 mph 24.0 mph 91% 0.00 in
03:59 29.3 °F 27.0 °F 29.67 in WSW 10.0 mph 24.0 mph 91% 0.00 in
04:04 29.1 °F 26.8 °F 29.67 in WSW 9.0 mph 22.0 mph 91% 0.00 in
04:09 28.8 °F 26.5 °F 29.67 in WSW 10.0 mph 22.0 mph 91% 0.00 in
04:14 28.6 °F 26.6 °F 29.67 in WSW 7.0 mph 20.0 mph 92% 0.00 in
04:19 28.5 °F 26.2 °F 29.67 in WSW 9.0 mph 20.0 mph 91% 0.00 in
04:24 28.3 °F 26.3 °F 29.68 in WSW 10.0 mph 19.0 mph 92% 0.00 in
04:29 28.3 °F 26.3 °F 29.68 in West 19.0 mph 19.0 mph 92% 0.00 in
04:34 28.2 °F 26.2 °F 29.68 in West 7.0 mph 19.0 mph 92% 0.00 in
04:39 28.1 °F 26.1 °F 29.68 in WSW 5.0 mph 15.0 mph 92% 0.00 in
04:44 27.9 °F 25.9 °F 29.68 in WSW 8.0 mph 20.0 mph 92% 0.00 in
04:49 27.8 °F 25.8 °F 29.69 in West 6.0 mph 18.0 mph 92% 0.00 in
04:54 27.4 °F 25.4 °F 29.69 in West 9.0 mph 18.0 mph 92% 0.00 in
04:59 27.0 °F 24.7 °F 29.70 in West 9.0 mph 18.0 mph 91% 0.00 in
05:04 26.6 °F 24.3 °F 29.70 in WSW 7.0 mph 17.0 mph 91% 0.00 in
05:05 26.6 °F 24.3 °F 29.70 in West 9.0 mph 17.0 mph 91% 0.00 in
05:09 26.4 °F 24.1 °F 29.70 in WNW 15.0 mph 19.0 mph 91% 0.00 in
05:14 25.8 °F 23.5 °F 29.71 in West 5.0 mph 19.0 mph 91% 0.00 in
05:19 25.6 °F 23.3 °F 29.72 in West 5.0 mph 22.0 mph 91% 0.00 in
05:24 25.3 °F 23.0 °F 29.72 in West 9.0 mph 22.0 mph 91% 0.00 in
05:29 25.1 °F 22.8 °F 29.72 in West 7.0 mph 18.0 mph 91% 0.00 in
05:34 24.9 °F 22.6 °F 29.73 in West 7.0 mph 13.0 mph 91% 0.00 in
05:39 24.7 °F 22.4 °F 29.73 in WSW 4.0 mph 14.0 mph 91% 0.00 in
05:44 24.6 °F 22.3 °F 29.74 in WSW 8.0 mph 15.0 mph 91% 0.00 in
05:45 24.6 °F 22.3 °F 29.74 in SW 8.0 mph 15.0 mph 91% 0.00 in
05:54 24.4 °F 22.2 °F 29.75 in West 8.0 mph 18.0 mph 91% 0.00 in
05:59 24.2 °F 22.0 °F 29.76 in West 8.0 mph 18.0 mph 91% 0.00 in
06:04 24.0 °F 21.8 °F 29.77 in West 8.0 mph 17.0 mph 91% 0.00 in
06:09 23.7 °F 21.5 °F 29.77 in West 8.0 mph 19.0 mph 91% 0.00 in
06:14 23.4 °F 21.2 °F 29.78 in West 7.0 mph 16.0 mph 91% 0.00 in
06:19 23.2 °F 21.0 °F 29.78 in West 8.0 mph 16.0 mph 91% 0.00 in
06:24 23.1 °F 20.9 °F 29.79 in West 12.0 mph 12.0 mph 91% 0.00 in
06:29 23.0 °F 20.8 °F 29.79 in WSW 9.0 mph 15.0 mph 91% 0.00 in
06:34 23.0 °F 20.8 °F 29.80 in WNW 11.0 mph 11.0 mph 91% 0.00 in
06:39 23.0 °F 20.8 °F 29.80 in West 4.0 mph 17.0 mph 91% 0.00 in
06:44 23.1 °F 20.9 °F 29.80 in WSW 10.0 mph 12.0 mph 91% 0.00 in
06:49 23.1 °F 20.9 °F 29.81 in West 4.0 mph 15.0 mph 91% 0.00 in
06:54 23.1 °F 20.9 °F 29.81 in West 5.0 mph 11.0 mph 91% 0.00 in
06:59 23.2 °F 21.0 °F 29.81 in WSW 5.0 mph 17.0 mph 91% 0.00 in
07:04 23.3 °F 21.1 °F 29.82 in SW 9.0 mph 16.0 mph 91% 0.00 in
07:09 23.3 °F 21.1 °F 29.82 in WSW 7.0 mph 17.0 mph 91% 0.00 in
07:14 23.4 °F 21.2 °F 29.82 in WSW 8.0 mph 17.0 mph 91% 0.00 in
07:19 23.4 °F 21.2 °F 29.82 in West 8.0 mph 17.0 mph 91% 0.00 in
07:24 23.5 °F 21.3 °F 29.82 in West 7.0 mph 14.0 mph 91% 0.00 in
07:29 23.5 °F 21.3 °F 29.83 in WSW 6.0 mph 17.0 mph 91% 0.00 in
07:34 23.5 °F 21.3 °F 29.83 in WSW 8.0 mph 16.0 mph 91% 0.00 in
07:39 23.5 °F 21.3 °F 29.83 in WSW 11.0 mph 13.0 mph 91% 0.00 in
07:44 23.5 °F 21.3 °F 29.84 in West 9.0 mph 17.0 mph 91% 0.00 in
07:49 23.5 °F 21.3 °F 29.84 in West 9.0 mph 17.0 mph 91% 0.00 in
07:54 23.5 °F 21.3 °F 29.85 in West 8.0 mph 18.0 mph 91% 0.00 in
07:59 23.5 °F 21.3 °F 29.85 in West 8.0 mph 18.0 mph 91% 0.00 in
08:09 23.4 °F 21.2 °F 29.86 in West 10.0 mph 18.0 mph 91% 0.00 in
08:14 23.3 °F 21.1 °F 29.86 in West 10.0 mph 20.0 mph 91% 0.00 in
08:19 23.1 °F 20.9 °F 29.87 in WNW 13.0 mph 19.0 mph 91% 0.00 in
08:24 23.0 °F 20.5 °F 29.87 in West 16.0 mph 20.0 mph 90% 0.00 in
08:29 22.9 °F 20.4 °F 29.87 in WSW 10.0 mph 20.0 mph 90% 0.00 in
08:34 22.8 °F 20.3 °F 29.88 in West 10.0 mph 20.0 mph 90% 0.00 in
08:39 22.8 °F 20.3 °F 29.89 in SW 13.0 mph 17.0 mph 90% 0.00 in
08:44 22.7 °F 20.2 °F 29.88 in SW 10.0 mph 22.0 mph 90% 0.00 in
08:49 22.6 °F 20.1 °F 29.89 in West 11.0 mph 22.0 mph 90% 0.00 in
08:54 22.6 °F 20.1 °F 29.90 in West 9.0 mph 17.0 mph 90% 0.00 in
08:59 22.5 °F 20.0 °F 29.90 in West 9.0 mph 17.0 mph 90% 0.00 in
09:04 22.4 °F 19.9 °F 29.91 in NW 12.0 mph 17.0 mph 90% 0.00 in
09:09 22.3 °F 19.6 °F 29.91 in WSW 9.0 mph 20.0 mph 89% 0.00 in
09:14 22.3 °F 19.6 °F 29.92 in WSW 11.0 mph 20.0 mph 89% 0.00 in
09:19 22.3 °F 19.6 °F 29.92 in West 9.0 mph 19.0 mph 89% 0.00 in
09:24 22.3 °F 19.6 °F 29.92 in West 10.0 mph 19.0 mph 89% 0.00 in
09:29 22.3 °F 19.6 °F 29.93 in West 9.0 mph 18.0 mph 89% 0.00 in
09:34 22.2 °F 19.5 °F 29.92 in West 10.0 mph 18.0 mph 89% 0.00 in
09:39 22.2 °F 19.2 °F 29.93 in West 10.0 mph 18.0 mph 88% 0.00 in
09:44 22.3 °F 19.3 °F 29.93 in West 10.0 mph 21.0 mph 88% 0.00 in
09:49 22.3 °F 19.0 °F 29.94 in West 12.0 mph 21.0 mph 87% 0.00 in
09:54 22.3 °F 19.0 °F 29.94 in West 11.0 mph 21.0 mph 87% 0.00 in
09:59 22.4 °F 19.1 °F 29.94 in West 11.0 mph 22.0 mph 87% 0.00 in
10:04 22.6 °F 19.0 °F 29.94 in South 12.0 mph 18.0 mph 86% 0.00 in
10:09 22.7 °F 19.1 °F 29.95 in WSW 11.0 mph 20.0 mph 86% 0.00 in
10:19 22.9 °F 19.1 °F 29.95 in WSW 7.0 mph 20.0 mph 85% 0.00 in
10:24 23.0 °F 19.2 °F 29.95 in West 9.0 mph 15.0 mph 85% 0.00 in
10:29 22.9 °F 19.1 °F 29.95 in West 9.0 mph 18.0 mph 85% 0.00 in
10:34 23.0 °F 19.2 °F 29.95 in West 11.0 mph 21.0 mph 85% 0.00 in
10:39 23.1 °F 19.0 °F 29.95 in West 12.0 mph 25.0 mph 84% 0.00 in
10:44 23.1 °F 19.0 °F 29.95 in West 12.0 mph 25.0 mph 84% 0.00 in
10:49 22.9 °F 18.8 °F 29.95 in West 11.0 mph 21.0 mph 84% 0.00 in
10:54 22.8 °F 19.0 °F 29.95 in WNW 8.0 mph 19.0 mph 85% 0.00 in
10:59 22.7 °F 18.6 °F 29.95 in West 15.0 mph 20.0 mph 84% 0.00 in
11:04 22.9 °F 18.8 °F 29.95 in West 10.0 mph 19.0 mph 84% 0.00 in
11:05 22.9 °F 18.8 °F 29.95 in West 11.0 mph 20.0 mph 84% 0.00 in
11:14 23.2 °F 18.5 °F 29.95 in WNW 11.0 mph 23.0 mph 82% 0.00 in
11:19 22.7 °F 18.0 °F 29.95 in NW 12.0 mph 20.0 mph 82% 0.00 in
11:24 22.4 °F 17.7 °F 29.95 in WSW 15.0 mph 18.0 mph 82% 0.00 in
11:29 22.2 °F 17.5 °F 29.94 in West 10.0 mph 21.0 mph 82% 0.00 in
11:34 22.1 °F 17.7 °F 29.95 in WSW 5.0 mph 18.0 mph 83% 0.00 in
11:39 22.1 °F 17.7 °F 29.94 in West 9.0 mph 18.0 mph 83% 0.00 in
11:44 22.2 °F 17.8 °F 29.94 in West 9.0 mph 20.0 mph 83% 0.00 in
11:49 22.5 °F 18.1 °F 29.94 in West 10.0 mph 20.0 mph 83% 0.00 in
11:54 22.6 °F 18.2 °F 29.94 in West 11.0 mph 21.0 mph 83% 0.00 in
11:59 22.9 °F 18.5 °F 29.94 in WNW 5.0 mph 21.0 mph 83% 0.00 in
12:04 23.1 °F 18.4 °F 29.94 in West 10.0 mph 19.0 mph 82% 0.00 in
12:09 23.3 °F 18.6 °F 29.94 in WSW 9.0 mph 20.0 mph 82% 0.00 in
12:14 23.7 °F 18.7 °F 29.94 in NW 8.0 mph 16.0 mph 81% 0.00 in
12:19 24.0 °F 19.0 °F 29.94 in West 9.0 mph 16.0 mph 81% 0.00 in
12:24 24.7 °F 19.4 °F 29.94 in West 8.0 mph 15.0 mph 80% 0.00 in
12:29 24.6 °F 19.3 °F 29.94 in WSW 6.0 mph 15.0 mph 80% 0.00 in
12:34 24.5 °F 19.5 °F 29.93 in West 8.0 mph 20.0 mph 81% 0.00 in
12:39 24.4 °F 19.4 °F 29.94 in WSW 6.0 mph 17.0 mph 81% 0.00 in
12:44 24.6 °F 19.6 °F 29.94 in West 9.0 mph 17.0 mph 81% 0.00 in
12:49 24.9 °F 19.6 °F 29.94 in WNW 17.0 mph 18.0 mph 80% 0.00 in
12:50 24.9 °F 19.6 °F 29.94 in West 9.0 mph 18.0 mph 80% 0.00 in
13:04 25.2 °F 19.6 °F 29.94 in West 9.0 mph 28.0 mph 79% 0.00 in
13:09 24.5 °F 18.6 °F 29.94 in WNW 14.0 mph 26.0 mph 78% 0.00 in
13:14 24.5 °F 18.9 °F 29.94 in West 10.0 mph 19.0 mph 79% 0.00 in
13:19 24.4 °F 18.5 °F 29.94 in West 9.0 mph 23.0 mph 78% 0.00 in
13:24 24.0 °F 17.8 °F 29.94 in West 5.0 mph 22.0 mph 77% 0.00 in
13:25 24.0 °F 17.8 °F 29.94 in West 11.0 mph 23.0 mph 77% 0.00 in
13:34 24.0 °F 17.8 °F 29.95 in West 9.0 mph 19.0 mph 77% 0.00 in
13:39 23.8 °F 17.9 °F 29.95 in West 6.0 mph 18.0 mph 78% 0.00 in
13:44 23.7 °F 17.5 °F 29.95 in WNW 9.0 mph 25.0 mph 77% 0.00 in
13:49 23.7 °F 17.5 °F 29.95 in WNW 23.0 mph 23.0 mph 77% 0.00 in
13:54 23.7 °F 17.5 °F 29.95 in West 12.0 mph 23.0 mph 77% 0.00 in
13:59 23.7 °F 17.5 °F 29.95 in West 11.0 mph 26.0 mph 77% 0.00 in
14:04 23.7 °F 17.2 °F 29.96 in West 11.0 mph 26.0 mph 76% 0.00 in
14:09 23.4 °F 16.9 °F 29.96 in West 12.0 mph 26.0 mph 76% 0.00 in
14:14 23.4 °F 17.6 °F 29.96 in West 12.0 mph 26.0 mph 78% 0.00 in
14:19 23.5 °F 17.6 °F 29.97 in West 10.0 mph 21.0 mph 78% 0.00 in
14:24 23.4 °F 17.6 °F 29.97 in West 9.0 mph 25.0 mph 78% 0.00 in
14:29 23.3 °F 17.5 °F 29.97 in West 10.0 mph 25.0 mph 78% 0.00 in
14:34 23.7 °F 17.5 °F 29.97 in West 9.0 mph 21.0 mph 77% 0.00 in
14:39 23.8 °F 17.6 °F 29.98 in West 8.0 mph 18.0 mph 77% 0.00 in
14:44 24.0 °F 17.5 °F 29.97 in West 9.0 mph 17.0 mph 76% 0.00 in
14:49 24.1 °F 17.9 °F 29.98 in NW 13.0 mph 19.0 mph 77% 0.00 in
14:54 24.1 °F 17.6 °F 29.98 in West 9.0 mph 22.0 mph 76% 0.00 in
14:59 24.0 °F 17.2 °F 29.98 in WSW 13.0 mph 16.0 mph 75% 0.00 in
15:04 23.8 °F 17.3 °F 29.98 in WSW 5.0 mph 15.0 mph 76% 0.00 in
15:09 23.6 °F 17.1 °F 29.99 in WSW 16.0 mph 16.0 mph 76% 0.00 in
15:14 23.5 °F 17.3 °F 29.99 in NW 9.0 mph 16.0 mph 77% 0.00 in
15:19 23.2 °F 16.8 °F 29.98 in WNW 13.0 mph 15.0 mph 76% 0.00 in
15:24 22.8 °F 16.4 °F 29.99 in West 10.0 mph 15.0 mph 76% 0.00 in
15:29 22.3 °F 15.9 °F 29.99 in West 9.0 mph 16.0 mph 76% 0.00 in
15:34 22.0 °F 15.9 °F 29.99 in West 8.0 mph 16.0 mph 77% 0.00 in
15:39 21.9 °F 16.1 °F 29.99 in West 6.0 mph 13.0 mph 78% 0.00 in
15:44 21.8 °F 16.0 °F 29.99 in WNW 11.0 mph 16.0 mph 78% 0.00 in
15:49 21.7 °F 15.6 °F 29.99 in West 8.0 mph 16.0 mph 77% 0.00 in
15:54 21.6 °F 15.8 °F 30.00 in West 9.0 mph 16.0 mph 78% 0.00 in
15:59 21.6 °F 15.8 °F 30.00 in West 10.0 mph 16.0 mph 78% 0.00 in
16:04 21.6 °F 15.8 °F 30.00 in West 6.0 mph 13.0 mph 78% 0.00 in
16:09 21.6 °F 15.5 °F 30.00 in WNW 3.0 mph 16.0 mph 77% 0.00 in
16:14 21.5 °F 15.4 °F 30.00 in WSW 6.0 mph 13.0 mph 77% 0.00 in
16:19 21.4 °F 15.3 °F 30.00 in West 8.0 mph 13.0 mph 77% 0.00 in
16:24 21.3 °F 15.5 °F 30.01 in WSW 6.0 mph 12.0 mph 78% 0.00 in
16:29 21.1 °F 15.3 °F 30.01 in SW 6.0 mph 13.0 mph 78% 0.00 in
16:34 21.1 °F 15.6 °F 30.01 in West 7.0 mph 16.0 mph 79% 0.00 in
16:39 21.0 °F 15.5 °F 30.02 in West 7.0 mph 16.0 mph 79% 0.00 in
16:49 20.9 °F 15.4 °F 30.02 in West 6.0 mph 12.0 mph 79% 0.00 in
16:54 20.8 °F 15.3 °F 30.03 in West 8.0 mph 21.0 mph 79% 0.00 in
16:59 20.7 °F 15.2 °F 30.03 in West 10.0 mph 21.0 mph 79% 0.00 in
17:04 20.5 °F 15.0 °F 30.03 in West 4.0 mph 12.0 mph 79% 0.00 in
17:09 20.4 °F 14.9 °F 30.04 in West 4.0 mph 13.0 mph 79% 0.00 in
17:14 20.3 °F 15.1 °F 30.04 in West 6.0 mph 18.0 mph 80% 0.00 in
17:19 20.2 °F 15.0 °F 30.05 in West 7.0 mph 20.0 mph 80% 0.00 in
17:24 20.1 °F 14.9 °F 30.05 in West 9.0 mph 20.0 mph 80% 0.00 in
17:29 20.0 °F 14.8 °F 30.05 in West 8.0 mph 16.0 mph 80% 0.00 in
17:34 19.9 °F 14.7 °F 30.05 in WSW 6.0 mph 15.0 mph 80% 0.00 in
17:39 19.8 °F 14.6 °F 30.05 in West 6.0 mph 17.0 mph 80% 0.00 in
17:44 19.8 °F 14.3 °F 30.05 in WNW 9.0 mph 18.0 mph 79% 0.00 in
17:49 19.7 °F 14.2 °F 30.06 in West 8.0 mph 18.0 mph 79% 0.00 in
17:54 19.7 °F 14.5 °F 30.06 in WSW 8.0 mph 16.0 mph 80% 0.00 in
17:59 19.7 °F 14.5 °F 30.06 in West 11.0 mph 14.0 mph 80% 0.00 in
18:04 19.7 °F 14.5 °F 30.07 in WSW 16.0 mph 16.0 mph 80% 0.00 in
18:09 19.7 °F 14.5 °F 30.07 in WSW 2.0 mph 18.0 mph 80% 0.00 in
18:14 19.7 °F 14.5 °F 30.07 in West 11.0 mph 13.0 mph 80% 0.00 in
18:19 19.6 °F 14.4 °F 30.07 in West 9.0 mph 19.0 mph 80% 0.00 in
18:24 19.5 °F 14.6 °F 30.07 in WNW 10.0 mph 20.0 mph 81% 0.00 in
18:29 19.5 °F 14.6 °F 30.08 in WNW 10.0 mph 21.0 mph 81% 0.00 in
18:34 19.4 °F 14.5 °F 30.08 in WNW 9.0 mph 21.0 mph 81% 0.00 in
18:39 19.3 °F 14.4 °F 30.09 in WSW 12.0 mph 20.0 mph 81% 0.00 in
18:44 19.1 °F 14.2 °F 30.09 in West 8.0 mph 19.0 mph 81% 0.00 in
18:49 19.0 °F 14.4 °F 30.10 in North 6.0 mph 18.0 mph 82% 0.00 in
18:54 18.9 °F 14.3 °F 30.10 in West 10.0 mph 19.0 mph 82% 0.00 in
18:59 18.7 °F 13.8 °F 30.11 in West 11.0 mph 19.0 mph 81% 0.00 in
19:04 18.5 °F 13.6 °F 30.11 in WSW 6.0 mph 17.0 mph 81% 0.00 in
19:05 18.5 °F 13.6 °F 30.11 in West 10.0 mph 19.0 mph 81% 0.00 in
19:14 18.3 °F 13.4 °F 30.11 in WNW 14.0 mph 20.0 mph 81% 0.00 in
19:19 18.1 °F 13.0 °F 30.12 in WNW 5.0 mph 17.0 mph 80% 0.00 in
19:24 18.0 °F 12.9 °F 30.12 in West 8.0 mph 14.0 mph 80% 0.00 in
19:29 17.9 °F 12.8 °F 30.12 in West 8.0 mph 14.0 mph 80% 0.00 in
19:34 17.8 °F 12.7 °F 30.12 in West 7.0 mph 17.0 mph 80% 0.00 in
19:39 17.7 °F 12.6 °F 30.12 in WNW 5.0 mph 14.0 mph 80% 0.00 in
19:44 17.6 °F 12.8 °F 30.12 in West 11.0 mph 14.0 mph 81% 0.00 in
19:49 17.6 °F 12.8 °F 30.12 in West 10.0 mph 14.0 mph 81% 0.00 in
19:54 17.6 °F 12.8 °F 30.12 in West 4.0 mph 17.0 mph 81% 0.00 in
19:59 17.5 °F 12.4 °F 30.12 in West 7.0 mph 17.0 mph 80% 0.00 in
20:04 17.4 °F 12.3 °F 30.12 in West 3.0 mph 14.0 mph 80% 0.00 in
20:09 17.2 °F 12.1 °F 30.13 in West 3.0 mph 11.0 mph 80% 0.00 in
20:14 17.2 °F 12.1 °F 30.13 in West 6.0 mph 14.0 mph 80% 0.00 in
20:19 17.1 °F 12.0 °F 30.13 in West 8.0 mph 18.0 mph 80% 0.00 in
20:24 17.1 °F 12.0 °F 30.12 in West 8.0 mph 18.0 mph 80% 0.00 in
20:29 17.0 °F 11.6 °F 30.13 in WNW 4.0 mph 14.0 mph 79% 0.00 in
20:34 16.9 °F 11.5 °F 30.13 in West 7.0 mph 15.0 mph 79% 0.00 in
20:39 16.9 °F 11.2 °F 30.13 in West 8.0 mph 15.0 mph 78% 0.00 in
20:44 16.9 °F 11.2 °F 30.13 in WSW 2.0 mph 14.0 mph 78% 0.00 in
20:49 16.8 °F 11.4 °F 30.13 in WNW 9.0 mph 20.0 mph 79% 0.00 in
20:54 16.8 °F 11.1 °F 30.14 in West 7.0 mph 20.0 mph 78% 0.00 in
20:59 16.7 °F 11.3 °F 30.14 in West 13.0 mph 18.0 mph 79% 0.00 in
21:04 16.7 °F 11.0 °F 30.14 in NW 7.0 mph 22.0 mph 78% 0.00 in
21:09 16.6 °F 10.9 °F 30.15 in West 8.0 mph 22.0 mph 78% 0.00 in
21:14 16.5 °F 10.8 °F 30.15 in West 8.0 mph 19.0 mph 78% 0.00 in
21:19 16.4 °F 10.7 °F 30.16 in West 14.0 mph 19.0 mph 78% 0.00 in
21:24 16.4 °F 10.4 °F 30.16 in West 10.0 mph 19.0 mph 77% 0.00 in
21:29 16.4 °F 10.4 °F 30.16 in West 10.0 mph 19.0 mph 77% 0.00 in
21:34 16.2 °F 10.3 °F 30.17 in WNW 7.0 mph 18.0 mph 77% 0.00 in
21:39 16.1 °F 10.2 °F 30.17 in West 14.0 mph 18.0 mph 77% 0.00 in
21:44 15.9 °F 10.0 °F 30.17 in West 9.0 mph 18.0 mph 77% 0.00 in
21:49 15.8 °F 9.6 °F 30.17 in West 10.0 mph 20.0 mph 76% 0.00 in
21:54 15.7 °F 9.5 °F 30.18 in WNW 12.0 mph 21.0 mph 76% 0.00 in
21:59 15.6 °F 9.4 °F 30.18 in West 8.0 mph 18.0 mph 76% 0.00 in
22:04 15.5 °F 9.3 °F 30.18 in West 8.0 mph 18.0 mph 76% 0.00 in
22:09 15.3 °F 9.4 °F 30.19 in West 7.0 mph 16.0 mph 77% 0.00 in
22:15 15.2 °F 9.3 °F 30.19 in West 9.0 mph 14.0 mph 77% 0.00 in
22:24 14.8 °F 8.6 °F 30.20 in West 7.0 mph 12.0 mph 76% 0.00 in
22:29 14.5 °F 8.3 °F 30.20 in West 7.0 mph 17.0 mph 76% 0.00 in
22:34 14.4 °F 8.2 °F 30.20 in West 4.0 mph 17.0 mph 76% 0.00 in
22:39 14.2 °F 8.0 °F 30.20 in West 7.0 mph 18.0 mph 76% 0.00 in
22:44 14.1 °F 7.6 °F 30.20 in West 8.0 mph 18.0 mph 75% 0.00 in
22:49 13.9 °F 7.4 °F 30.20 in WNW 6.0 mph 17.0 mph 75% 0.00 in
22:54 13.7 °F 7.2 °F 30.20 in West 9.0 mph 20.0 mph 75% 0.00 in
22:59 13.7 °F 6.9 °F 30.20 in NNW 14.0 mph 23.0 mph 74% 0.00 in
23:04 13.7 °F 6.6 °F 30.21 in WNW 4.0 mph 21.0 mph 73% 0.00 in
23:09 13.5 °F 6.5 °F 30.21 in West 15.0 mph 19.0 mph 73% 0.00 in
23:14 13.4 °F 6.1 °F 30.22 in WNW 10.0 mph 19.0 mph 72% 0.00 in
23:19 13.3 °F 6.0 °F 30.22 in West 10.0 mph 20.0 mph 72% 0.00 in
23:24 13.2 °F 5.9 °F 30.22 in West 10.0 mph 20.0 mph 72% 0.00 in
23:29 13.0 °F 5.4 °F 30.22 in WNW 11.0 mph 22.0 mph 71% 0.00 in
23:39 12.8 °F 4.9 °F 30.22 in West 10.0 mph 19.0 mph 70% 0.00 in
23:44 12.6 °F 4.7 °F 30.22 in West 6.0 mph 16.0 mph 70% 0.00 in
23:49 12.5 °F 4.6 °F 30.22 in WNW 14.0 mph 23.0 mph 70% 0.00 in
23:54 12.4 °F 4.5 °F 30.23 in NW 8.0 mph 18.0 mph 70% 0.00 in
23:55 12.4 °F 4.5 °F 30.23 in West 10.0 mph 23.0 mph 70% 0.00 in
23:59 12.3 °F 4.4 °F 30.23 in West 10.0 mph 19.0 mph 70% 0.00 in
Buffalo, New York, USA
Compliments of Weather Underground - 2.5 mb